Time;durP1;ratioP1;P1;durP2;ratioP2;P2;SDS_P1;SDS_P2;PMS_P1;PMS_P2;Temp;Humidity;BMP_temperature;BMP_pressure;BME280_temperature;BME280_humidity;BME280_pressure;Samples;Min_cycle;Max_cycle;Signal;HPM_P1;HPM_P2
2019/11/15 00:00:59;;;;;;;24.9;22.6;;;;;;;;;;;;;
2019/11/15 00:03:24;;;;;;;25.2;22.8;;;;;;;;;;;;;
2019/11/15 00:05:49;;;;;;;26.1;23.7;;;;;;;;;;;;;
2019/11/15 00:08:14;;;;;;;25.4;23;;;;;;;;;;;;;
2019/11/15 00:10:39;;;;;;;24.1;21.9;;;;;;;;;;;;;
2019/11/15 00:13:04;;;;;;;26;23.6;;;;;;;;;;;;;
2019/11/15 00:15:29;;;;;;;25.7;23.3;;;;;;;;;;;;;
2019/11/15 00:17:54;;;;;;;25.1;22.8;;;;;;;;;;;;;
2019/11/15 00:20:19;;;;;;;24.4;22.1;;;;;;;;;;;;;
2019/11/15 00:22:45;;;;;;;26.1;23.7;;;;;;;;;;;;;
2019/11/15 00:25:10;;;;;;;26.3;23.9;;;;;;;;;;;;;
2019/11/15 00:27:35;;;;;;;25.2;22.8;;;;;;;;;;;;;
2019/11/15 00:30:00;;;;;;;26.7;24.2;;;;;;;;;;;;;
2019/11/15 00:34:09;;;;;;;25.7;23.3;;;;;;;;;;;;;
2019/11/15 00:35:00;;;;;;;26.1;23.7;;;;;;;;;;;;;
2019/11/15 00:37:42;;;;;;;25.1;22.7;;;;;;;;;;;;;
2019/11/15 00:39:44;;;;;;;24.9;22.5;;;;;;;;;;;;;
2019/11/15 00:42:05;;;;;;;24.7;22.4;;;;;;;;;;;;;
2019/11/15 00:44:30;;;;;;;23.7;21.4;;;;;;;;;;;;;
2019/11/15 00:47:11;;;;;;;23.8;21.5;;;;;;;;;;;;;
2019/11/15 00:49:36;;;;;;;22.7;20.5;;;;;;;;;;;;;
2019/11/15 00:52:01;;;;;;;23.3;21.1;;;;;;;;;;;;;
2019/11/15 00:54:26;;;;;;;23.8;21.4;;;;;;;;;;;;;
2019/11/15 00:56:51;;;;;;;24.3;21.9;;;;;;;;;;;;;
2019/11/15 00:59:16;;;;;;;24.2;21.9;;;;;;;;;;;;;
2019/11/15 01:01:41;;;;;;;22.8;20.6;;;;;;;;;;;;;
2019/11/15 01:04:06;;;;;;;23.1;20.8;;;;;;;;;;;;;
2019/11/15 01:06:31;;;;;;;21.6;19.7;;;;;;;;;;;;;
2019/11/15 01:08:56;;;;;;;22.2;20.1;;;;;;;;;;;;;
2019/11/15 01:11:22;;;;;;;23.9;21.6;;;;;;;;;;;;;
2019/11/15 01:13:47;;;;;;;24.1;21.8;;;;;;;;;;;;;
2019/11/15 01:16:12;;;;;;;23.6;21.4;;;;;;;;;;;;;
2019/11/15 01:18:37;;;;;;;23.8;21.5;;;;;;;;;;;;;
2019/11/15 01:21:02;;;;;;;22.2;20.1;;;;;;;;;;;;;
2019/11/15 01:23:27;;;;;;;21.5;19.5;;;;;;;;;;;;;
2019/11/15 01:25:52;;;;;;;20.9;18.9;;;;;;;;;;;;;
2019/11/15 01:28:17;;;;;;;21;19;;;;;;;;;;;;;
2019/11/15 01:30:42;;;;;;;21.9;19.8;;;;;;;;;;;;;
2019/11/15 01:33:07;;;;;;;22.3;20.2;;;;;;;;;;;;;
2019/11/15 01:35:33;;;;;;;22;19.9;;;;;;;;;;;;;
2019/11/15 01:37:58;;;;;;;21.2;19.1;;;;;;;;;;;;;
2019/11/15 01:40:23;;;;;;;20.9;19;;;;;;;;;;;;;
2019/11/15 01:42:48;;;;;;;21.3;19.3;;;;;;;;;;;;;
2019/11/15 01:45:13;;;;;;;22.3;20.1;;;;;;;;;;;;;
2019/11/15 01:47:38;;;;;;;21.5;19.5;;;;;;;;;;;;;
2019/11/15 01:50:03;;;;;;;21;19;;;;;;;;;;;;;
2019/11/15 01:52:28;;;;;;;21.8;19.6;;;;;;;;;;;;;
2019/11/15 01:54:53;;;;;;;24;21.5;;;;;;;;;;;;;
2019/11/15 01:57:18;;;;;;;23.1;20.9;;;;;;;;;;;;;
2019/11/15 01:59:43;;;;;;;22.7;20.4;;;;;;;;;;;;;
2019/11/15 02:02:08;;;;;;;22.8;20.6;;;;;;;;;;;;;
2019/11/15 02:09:47;;;;;;;23.1;20.8;;;;;;;;;;;;;
2019/11/15 02:13:40;;;;;;;24.4;21.9;;;;;;;;;;;;;
2019/11/15 02:14:14;;;;;;;23.6;21.3;;;;;;;;;;;;;
2019/11/15 02:16:40;;;;;;;25.4;22.9;;;;;;;;;;;;;
2019/11/15 02:19:05;;;;;;;24.6;22.2;;;;;;;;;;;;;
2019/11/15 02:21:30;;;;;;;23.6;21.3;;;;;;;;;;;;;
2019/11/15 02:23:55;;;;;;;21.7;19.6;;;;;;;;;;;;;
2019/11/15 02:26:20;;;;;;;23.6;21.3;;;;;;;;;;;;;
2019/11/15 02:28:45;;;;;;;22.4;20.1;;;;;;;;;;;;;
2019/11/15 02:31:10;;;;;;;22;19.9;;;;;;;;;;;;;
2019/11/15 02:33:36;;;;;;;20.9;18.9;;;;;;;;;;;;;
2019/11/15 02:36:01;;;;;;;21.4;19.3;;;;;;;;;;;;;
2019/11/15 02:38:26;;;;;;;21.7;19.6;;;;;;;;;;;;;
2019/11/15 02:40:51;;;;;;;22.3;20.1;;;;;;;;;;;;;
2019/11/15 02:43:16;;;;;;;20.9;18.9;;;;;;;;;;;;;
2019/11/15 02:45:41;;;;;;;20.8;18.8;;;;;;;;;;;;;
2019/11/15 02:48:06;;;;;;;20.5;18.4;;;;;;;;;;;;;
2019/11/15 02:50:32;;;;;;;22.1;20;;;;;;;;;;;;;
2019/11/15 02:52:57;;;;;;;20.9;18.9;;;;;;;;;;;;;
2019/11/15 02:55:22;;;;;;;20.1;18.1;;;;;;;;;;;;;
2019/11/15 02:57:47;;;;;;;20.2;18.2;;;;;;;;;;;;;
2019/11/15 03:00:12;;;;;;;21;19;;;;;;;;;;;;;
2019/11/15 03:02:37;;;;;;;20.1;18.1;;;;;;;;;;;;;
2019/11/15 03:05:02;;;;;;;19.8;17.9;;;;;;;;;;;;;
2019/11/15 03:07:30;;;;;;;19.6;17.6;;;;;;;;;;;;;
2019/11/15 03:09:55;;;;;;;18.7;16.9;;;;;;;;;;;;;
2019/11/15 03:12:20;;;;;;;18.7;16.9;;;;;;;;;;;;;
2019/11/15 03:14:45;;;;;;;17.9;16.1;;;;;;;;;;;;;
2019/11/15 03:17:10;;;;;;;17.8;16.1;;;;;;;;;;;;;
2019/11/15 03:19:35;;;;;;;18.1;16.3;;;;;;;;;;;;;
2019/11/15 03:22:02;;;;;;;17.2;15.5;;;;;;;;;;;;;
2019/11/15 03:24:27;;;;;;;16.8;15.2;;;;;;;;;;;;;
2019/11/15 03:26:52;;;;;;;17.6;15.9;;;;;;;;;;;;;
2019/11/15 03:29:27;;;;;;;17;15.3;;;;;;;;;;;;;
2019/11/15 03:31:58;;;;;;;18.1;16.3;;;;;;;;;;;;;
2019/11/15 03:34:19;;;;;;;17.4;15.7;;;;;;;;;;;;;
2019/11/15 03:36:32;;;;;;;16;14.4;;;;;;;;;;;;;
2019/11/15 03:38:57;;;;;;;16;14.4;;;;;;;;;;;;;
2019/11/15 03:41:22;;;;;;;15.8;14.2;;;;;;;;;;;;;
2019/11/15 03:43:48;;;;;;;16.2;14.5;;;;;;;;;;;;;
2019/11/15 03:46:13;;;;;;;14.7;13.3;;;;;;;;;;;;;
2019/11/15 03:48:38;;;;;;;15.4;13.8;;;;;;;;;;;;;
2019/11/15 03:51:03;;;;;;;15.6;14.1;;;;;;;;;;;;;
2019/11/15 03:53:28;;;;;;;14.6;13.1;;;;;;;;;;;;;
2019/11/15 03:56:09;;;;;;;14.8;13.2;;;;;;;;;;;;;
2019/11/15 03:59:21;;;;;;;14.4;12.9;;;;;;;;;;;;;
2019/11/15 04:02:28;;;;;;;14.1;12.6;;;;;;;2.53;93.51172;940.046;;;;
2019/11/15 04:04:53;;;;;;;14.4;13;;;;;;;2.53;93.49121;939.8233;;;;
2019/11/15 04:07:18;;;;;;;13.9;12.6;;;;;;;2.5;93.3584;939.8461;;;;
2019/11/15 04:09:43;;;;;;;13.9;12.5;;;;;;;2.53;93.35547;939.9102;;;;
2019/11/15 04:12:09;;;;;;;14.6;13.1;;;;;;;2.46;93.9043;939.7861;;;;
2019/11/15 04:14:34;;;;;;;13.9;12.5;;;;;;;2.63;93.15137;939.8667;;;;
2019/11/15 04:16:59;;;;;;;13.2;11.9;;;;;;;2.83;92.06445;939.8459;;;;
2019/11/15 04:19:25;;;;;;;14.2;12.8;;;;;;;2.51;93.29297;939.6718;;;;
2019/11/15 04:21:50;;;;;;;14.9;13.3;;;;;;;2.49;94.00293;939.6227;;;;
2019/11/15 04:24:15;;;;;;;14.8;13.2;;;;;;;2.53;93.91992;939.6722;;;;
2019/11/15 04:26:40;;;;;;;14.5;13;;;;;;;2.53;93.62402;939.8176;;;;
2019/11/15 04:29:05;;;;;;;14.6;13.2;;;;;;;2.46;94.11914;939.6567;;;;
2019/11/15 04:31:30;;;;;;;14.2;12.8;;;;;;;2.64;93.80859;939.5865;;;;
2019/11/15 04:33:56;;;;;;;14.7;13.2;;;;;;;2.51;94.23242;939.5717;;;;
2019/11/15 04:36:21;;;;;;;14.8;13.2;;;;;;;2.48;94.16797;939.5588;;;;
2019/11/15 04:38:46;;;;;;;14.1;12.7;;;;;;;2.46;94.43457;939.5483;;;;
2019/11/15 04:41:11;;;;;;;14.2;12.7;;;;;;;2.45;94.41016;939.5527;;;;
2019/11/15 04:43:36;;;;;;;14.5;13;;;;;;;2.52;93.97266;939.64;;;;
2019/11/15 04:46:01;;;;;;;13.5;12.2;;;;;;;2.63;93.5918;939.628;;;;
2019/11/15 04:48:27;;;;;;;13;11.7;;;;;;;2.59;93.44629;939.5438;;;;
2019/11/15 04:50:52;;;;;;;13.2;11.9;;;;;;;2.49;93.60547;939.5432;;;;
2019/11/15 04:53:17;;;;;;;13.1;11.8;;;;;;;2.63;92.87988;939.5002;;;;
2019/11/15 04:55:43;;;;;;;13.7;12.3;;;;;;;2.47;94.11914;939.5427;;;;
2019/11/15 04:58:08;;;;;;;13.2;11.9;;;;;;;2.49;94.01172;939.4089;;;;
2019/11/15 05:00:34;;;;;;;12.9;11.5;;;;;;;2.53;93.81836;939.4295;;;;
2019/11/15 05:02:59;;;;;;;12.5;11.2;;;;;;;2.53;93.53613;939.4063;;;;
2019/11/15 05:05:24;;;;;;;12;10.8;;;;;;;2.64;92.92676;939.4708;;;;
2019/11/15 05:07:49;;;;;;;13.1;11.3;;;;;;;2.56;92.77344;939.5394;;;;
2019/11/15 05:10:14;;;;;;;11.7;10.5;;;;;;;2.73;92.25684;939.399;;;;
2019/11/15 05:12:40;;;;;;;11.2;10.1;;;;;;;2.68;91.90625;939.2253;;;;
2019/11/15 05:15:05;;;;;;;11.2;10;;;;;;;2.7;92.11621;939.0014;;;;
2019/11/15 05:17:30;;;;;;;11.4;10.2;;;;;;;2.68;92.55273;939.1835;;;;
2019/11/15 05:19:55;;;;;;;11;9.9;;;;;;;2.62;92.03027;939.14;;;;
2019/11/15 05:22:23;;;;;;;10.8;9.7;;;;;;;2.65;91.96875;938.8727;;;;
2019/11/15 05:24:48;;;;;;;10.6;9.5;;;;;;;2.64;91.63867;938.8414;;;;
2019/11/15 05:27:13;;;;;;;10.5;9.4;;;;;;;2.62;92.10742;938.6761;;;;
2019/11/15 05:29:38;;;;;;;10.7;9.2;;;;;;;2.78;91.35352;938.5541;;;;
2019/11/15 05:32:04;;;;;;;11.2;10;;;;;;;2.64;91.79688;938.5608;;;;
2019/11/15 05:34:29;;;;;;;10.5;9.4;;;;;;;2.76;91.58496;938.6099;;;;
2019/11/15 05:36:54;;;;;;;10.2;9.1;;;;;;;2.71;91.15723;938.5584;;;;
2019/11/15 05:39:19;;;;;;;10;8.9;;;;;;;2.74;90.95996;938.4633;;;;
2019/11/15 05:41:44;;;;;;;9.6;8.6;;;;;;;2.85;90.71094;938.5437;;;;
2019/11/15 05:44:09;;;;;;;8.8;7.9;;;;;;;3.02;89.70703;938.6478;;;;
2019/11/15 05:46:34;;;;;;;9.7;8.7;;;;;;;2.92;89.7334;938.5035;;;;
2019/11/15 05:48:59;;;;;;;10.4;8.7;;;;;;;2.97;89.8916;938.4656;;;;
2019/11/15 05:51:24;;;;;;;11.5;8.4;;;;;;;2.97;90.13867;938.6473;;;;
2019/11/15 05:53:49;;;;;;;8.9;8;;;;;;;3.08;88.99707;939.0061;;;;
2019/11/15 05:56:14;;;;;;;8.8;7.8;;;;;;;3.06;89.21973;938.6969;;;;
2019/11/15 05:58:40;;;;;;;9.2;8.2;;;;;;;3.01;89.94336;938.8264;;;;
2019/11/15 06:01:05;;;;;;;9.5;7.7;;;;;;;3.07;89.95605;938.6414;;;;
2019/11/15 06:03:30;;;;;;;8.2;7.1;;;;;;;3.23;88.74414;938.5379;;;;
2019/11/15 06:05:55;;;;;;;8.3;7.4;;;;;;;3.15;88.95313;938.8951;;;;
2019/11/15 06:08:20;;;;;;;8;7.2;;;;;;;3.21;88.52734;938.8292;;;;
2019/11/15 06:10:45;;;;;;;8.2;6.7;;;;;;;3.23;88.55176;938.8115;;;;
2019/11/15 06:13:10;;;;;;;8;6.6;;;;;;;3.27;88.07422;938.7856;;;;
2019/11/15 06:15:36;;;;;;;7.4;6.6;;;;;;;3.3;88.08008;938.8247;;;;
2019/11/15 06:18:01;;;;;;;8.5;6.4;;;;;;;3.2;88.05957;938.7628;;;;
2019/11/15 06:20:27;;;;;;;7.7;6.8;;;;;;;3.21;88.62891;938.5178;;;;
2019/11/15 06:22:52;;;;;;;9.5;7;;;;;;;3.21;89.05859;938.6987;;;;
2019/11/15 06:25:27;;;;;;;7.4;6.5;;;;;;;3.21;88.88965;938.6707;;;;
2019/11/15 06:27:52;;;;;;;7.8;6.5;;;;;;;3.29;88.33887;938.7173;;;;
2019/11/15 06:30:17;;;;;;;8.5;6.7;;;;;;;3.29;88.69141;938.6633;;;;
2019/11/15 06:32:43;;;;;;;7.8;6.4;;;;;;;3.24;88.28418;938.4144;;;;
2019/11/15 06:35:09;;;;;;;7;5.9;;;;;;;3.3;88.19336;938.621;;;;
2019/11/15 06:37:34;;;;;;;7.6;6.1;;;;;;;3.43;88.36816;938.8003;;;;
2019/11/15 06:39:59;;;;;;;6.7;5.6;;;;;;;3.55;87.0127;938.805;;;;
2019/11/15 06:42:24;;;;;;;6.7;5.1;;;;;;;3.54;87.10156;938.8622;;;;
2019/11/15 06:44:49;;;;;;;8.4;5.6;;;;;;;3.47;87.93457;938.7468;;;;
2019/11/15 06:47:24;;;;;;;8.4;5.5;;;;;;;3.45;88.13379;938.9827;;;;
2019/11/15 06:49:40;;;;;;;7.9;5.6;;;;;;;3.46;88.2832;938.9593;;;;
2019/11/15 06:52:05;;;;;;;7;5.5;;;;;;;3.49;87.30762;938.9122;;;;
2019/11/15 06:54:30;;;;;;;8.6;5.3;;;;;;;3.64;87.29199;938.8906;;;;
2019/11/15 06:56:56;;;;;;;7.5;5.4;;;;;;;3.69;87.1875;939.116;;;;
2019/11/15 06:59:21;;;;;;;9.3;5.9;;;;;;;3.79;86.65234;939.2547;;;;
2019/11/15 07:01:46;;;;;;;6.8;5.2;;;;;;;3.87;86.375;939.2605;;;;
2019/11/15 07:04:11;;;;;;;7.7;4.7;;;;;;;3.98;85.43457;939.2304;;;;
2019/11/15 07:06:36;;;;;;;7;4.5;;;;;;;4.08;85.28418;939.1298;;;;
2019/11/15 07:09:02;;;;;;;5.9;4.2;;;;;;;4.15;84.75293;938.9651;;;;
2019/11/15 07:11:27;;;;;;;5.1;4.3;;;;;;;4.05;85.49316;939.0101;;;;
2019/11/15 07:13:52;;;;;;;6;4.5;;;;;;;4.22;85.26758;939.132;;;;
2019/11/15 07:16:18;;;;;;;5.3;4.7;;;;;;;4.24;85.08789;939.1288;;;;
2019/11/15 07:18:43;;;;;;;5.6;4.6;;;;;;;4.23;84.97266;939.0136;;;;
2019/11/15 07:21:10;;;;;;;6.4;4.3;;;;;;;4.18;85.70117;938.9405;;;;
2019/11/15 07:23:35;;;;;;;4.9;4.3;;;;;;;4.24;85.29395;939.0111;;;;
2019/11/15 07:26:04;;;;;;;5.6;4.5;;;;;;;4.34;84.95117;939.009;;;;
2019/11/15 07:28:42;;;;;;;6.2;4.4;;;;;;;4.26;85.46777;939.0178;;;;
2019/11/15 07:31:08;;;;;;;6.3;4.7;;;;;;;4.37;84.92188;939.1399;;;;
2019/11/15 07:33:34;;;;;;;9.6;5.3;;;;;;;4.35;85.58789;939.0792;;;;
2019/11/15 07:35:59;;;;;;;7.1;4.8;;;;;;;4.35;86.10938;938.955;;;;
2019/11/15 07:38:24;;;;;;;7.3;4.5;;;;;;;4.35;85.77148;939.017;;;;
2019/11/15 07:40:49;;;;;;;6.8;4.4;;;;;;;4.6;84.80957;939.2553;;;;
2019/11/15 07:43:14;;;;;;;5.8;4.2;;;;;;;4.65;84.43262;939.3357;;;;
2019/11/15 07:45:39;;;;;;;6.3;4.5;;;;;;;4.74;84.38379;939.3833;;;;
2019/11/15 07:48:04;;;;;;;7.1;4.8;;;;;;;4.64;84.2832;939.2753;;;;
2019/11/15 07:50:29;;;;;;;6.3;4.4;;;;;;;4.69;85.12402;939.3706;;;;
2019/11/15 07:52:54;;;;;;;5.6;3.9;;;;;;;4.75;84.90625;939.4308;;;;
2019/11/15 07:55:20;;;;;;;6.3;3.9;;;;;;;4.81;85.03223;939.4498;;;;
2019/11/15 07:57:45;;;;;;;6;4.3;;;;;;;4.95;84.11816;939.5252;;;;
2019/11/15 08:00:10;;;;;;;5.9;4;;;;;;;4.97;84.80273;939.6788;;;;
2019/11/15 08:02:35;;;;;;;7.5;4.4;;;;;;;4.95;85.52637;939.6746;;;;
2019/11/15 08:05:00;;;;;;;5.1;3.9;;;;;;;4.99;85.80664;939.5279;;;;
2019/11/15 08:07:25;;;;;;;5.6;4.1;;;;;;;5.12;84.12695;939.6202;;;;
2019/11/15 08:09:50;;;;;;;6.3;4.1;;;;;;;5.16;85.02246;939.6325;;;;
2019/11/15 08:12:15;;;;;;;4.5;4;;;;;;;5.2;84.19043;939.8134;;;;
2019/11/15 08:14:40;;;;;;;6.4;4.3;;;;;;;5.29;85.06055;939.8141;;;;
2019/11/15 08:17:05;;;;;;;5.4;4.2;;;;;;;5.29;83.74219;939.7818;;;;
2019/11/15 08:19:48;;;;;;;6.2;4.4;;;;;;;5.49;83.30273;939.9317;;;;
2019/11/15 08:22:13;;;;;;;5.3;4.5;;;;;;;5.51;84.2959;939.9546;;;;
2019/11/15 08:24:53;;;;;;;8;3.9;;;;;;;5.55;82.2666;939.9855;;;;
2019/11/15 08:27:19;;;;;;;6;4.2;;;;;;;5.54;84.00488;939.933;;;;
2019/11/15 08:29:44;;;;;;;12.6;4.2;;;;;;;5.53;83.70996;940.0143;;;;
2019/11/15 08:32:09;;;;;;;10.8;6.1;;;;;;;5.73;82.06543;940.0616;;;;
2019/11/15 08:34:34;;;;;;;7;4;;;;;;;5.96;80.31934;940.1577;;;;
2019/11/15 08:36:59;;;;;;;7;4.3;;;;;;;5.88;81.62598;940.1941;;;;
2019/11/15 08:39:24;;;;;;;5.8;4.2;;;;;;;5.92;80.93848;940.2249;;;;
2019/11/15 08:41:49;;;;;;;7;4.2;;;;;;;5.87;81.79492;940.3372;;;;
2019/11/15 08:44:14;;;;;;;9.7;4.2;;;;;;;5.85;83.22461;940.5034;;;;
2019/11/15 08:46:39;;;;;;;6.5;3.8;;;;;;;5.87;81.47461;940.5659;;;;
2019/11/15 08:49:04;;;;;;;5.5;3.9;;;;;;;5.88;82.27344;940.7736;;;;
2019/11/15 08:51:29;;;;;;;6.4;4;;;;;;;5.94;82.58203;940.8066;;;;
2019/11/15 08:53:54;;;;;;;6;3.5;;;;;;;5.92;82.9541;940.8942;;;;
2019/11/15 08:56:19;;;;;;;6.1;4;;;;;;;5.99;80.12109;941.6808;;;;
2019/11/15 08:58:44;;;;;;;6.2;3.8;;;;;;;5.82;79.47461;941.945;;;;
2019/11/15 09:01:14;;;;;;;6.7;3.8;;;;;;;5.78;80.19629;942.0192;;;;
2019/11/15 09:03:34;;;;;;;5.4;3.7;;;;;;;5.78;79.67383;942.1202;;;;
2019/11/15 09:06:00;;;;;;;5.8;3.8;;;;;;;5.72;79.5127;942.1083;;;;
2019/11/15 09:08:25;;;;;;;7.3;3.8;;;;;;;5.69;79.22168;942.2794;;;;
2019/11/15 09:12:37;;;;;;;5.4;3.4;;;;;;;5.66;78.375;942.3186;;;;
2019/11/15 09:13:15;;;;;;;4.8;3.8;;;;;;;5.8;78.42383;942.2756;;;;
2019/11/15 09:15:40;;;;;;;6.1;3.4;;;;;;;5.85;77.77148;942.448;;;;
2019/11/15 09:18:05;;;;;;;6.6;3.6;;;;;;;5.87;77.53809;942.5168;;;;
2019/11/15 09:20:43;;;;;;;4.8;3.2;;;;;;;5.91;76.26855;942.4;;;;
2019/11/15 09:22:55;;;;;;;6.2;3.8;;;;;;;6;75.76074;942.4592;;;;
2019/11/15 09:25:21;;;;;;;4.8;3.8;;;;;;;6.08;75.44531;942.5627;;;;
2019/11/15 09:27:46;;;;;;;5.8;4;;;;;;;5.95;75.43262;942.7444;;;;
2019/11/15 09:30:12;;;;;;;4.9;4;;;;;;;5.89;75.06836;943.1037;;;;
2019/11/15 09:32:36;;;;;;;6.7;4.6;;;;;;;5.88;74.78223;943.2718;;;;
2019/11/15 09:35:01;;;;;;;5;4.5;;;;;;;5.91;74.80176;943.365;;;;
2019/11/15 09:37:26;;;;;;;7.2;5;;;;;;;5.9;74.36621;943.4152;;;;
2019/11/15 09:39:52;;;;;;;6.6;5.5;;;;;;;5.68;74.27051;943.2841;;;;
2019/11/15 09:42:18;;;;;;;7.3;5.8;;;;;;;5.74;74.77051;943.3527;;;;
2019/11/15 09:47:17;;;;;;;8.9;6.3;;;;;;;5.78;74.21875;943.6094;;;;
2019/11/15 09:49:33;;;;;;;8.8;7;;;;;;;5.64;74.31934;943.5779;;;;
2019/11/15 09:51:58;;;;;;;8;7.2;;;;;;;5.69;73.71387;943.5995;;;;
2019/11/15 09:54:23;;;;;;;10.6;7.9;;;;;;;5.56;73.73828;943.7194;;;;
2019/11/15 09:56:48;;;;;;;8.8;7.9;;;;;;;5.68;73.81641;943.8028;;;;
2019/11/15 09:59:14;;;;;;;10.3;8.5;;;;;;;5.71;73.34375;944.0367;;;;
2019/11/15 10:01:39;;;;;;;9.9;8.9;;;;;;;5.79;72.85645;944.1065;;;;
2019/11/15 10:04:04;;;;;;;10.4;9.4;;;;;;;5.87;73.13086;944.173;;;;
2019/11/15 10:06:29;;;;;;;11.2;9.5;;;;;;;5.73;73.5752;944.2537;;;;
2019/11/15 10:08:54;;;;;;;11.1;9.8;;;;;;;5.73;73.4375;944.2148;;;;
2019/11/15 10:11:19;;;;;;;11.5;10.4;;;;;;;5.83;74.10352;944.3153;;;;
2019/11/15 10:13:44;;;;;;;11.2;10.1;;;;;;;5.71;73.60547;944.238;;;;
2019/11/15 10:16:09;;;;;;;12.5;11.3;;;;;;;5.55;73.53223;944.3289;;;;
2019/11/15 10:18:34;;;;;;;12.7;11.2;;;;;;;5.67;73.91602;944.2933;;;;
2019/11/15 10:21:00;;;;;;;12.9;11.6;;;;;;;5.8;73.66602;944.3384;;;;
2019/11/15 10:23:25;;;;;;;12.9;11.3;;;;;;;5.68;73.87207;944.4436;;;;
2019/11/15 10:25:50;;;;;;;12.4;11.2;;;;;;;5.84;74.09375;944.4838;;;;
2019/11/15 10:28:15;;;;;;;12.3;11.1;;;;;;;5.67;74.42773;944.6747;;;;
2019/11/15 10:30:40;;;;;;;13.1;11.8;;;;;;;5.57;74.84277;944.6395;;;;
2019/11/15 10:33:05;;;;;;;13.1;11.9;;;;;;;5.64;75.08203;944.6016;;;;
2019/11/15 10:35:30;;;;;;;13.1;11.8;;;;;;;5.76;74.62695;944.6961;;;;
2019/11/15 10:37:56;;;;;;;13.3;11.9;;;;;;;5.83;74.59277;944.7704;;;;
2019/11/15 10:40:21;;;;;;;12.9;11.6;;;;;;;5.86;74.84766;944.8815;;;;
2019/11/15 10:42:46;;;;;;;13;11.7;;;;;;;5.98;74.28906;944.7932;;;;
2019/11/15 10:45:11;;;;;;;13.9;12.5;;;;;;;5.97;73.83203;944.8041;;;;
2019/11/15 10:47:36;;;;;;;13.4;12;;;;;;;5.92;74.34668;944.7982;;;;
2019/11/15 10:50:01;;;;;;;15;12.4;;;;;;;5.79;76.02051;944.8742;;;;
2019/11/15 10:52:26;;;;;;;13.1;11.8;;;;;;;5.87;74.87402;944.9005;;;;
2019/11/15 10:54:51;;;;;;;13.1;11.8;;;;;;;5.92;75.08691;944.8686;;;;
2019/11/15 10:57:16;;;;;;;13.3;12.1;;;;;;;5.98;75.25488;944.7159;;;;
2019/11/15 10:59:42;;;;;;;13.1;11.8;;;;;;;6.06;74.60938;944.7679;;;;
2019/11/15 11:02:07;;;;;;;13;11.7;;;;;;;5.91;74.71094;944.7004;;;;
2019/11/15 11:04:32;;;;;;;13.2;11.9;;;;;;;6.03;74.50195;944.5809;;;;
2019/11/15 11:06:57;;;;;;;13.3;12;;;;;;;6.03;74.99121;944.6941;;;;
2019/11/15 11:09:23;;;;;;;13.7;12.3;;;;;;;5.93;74.90723;944.6476;;;;
2019/11/15 11:11:48;;;;;;;13.6;12.3;;;;;;;5.98;74.83398;944.64;;;;
2019/11/15 11:14:13;;;;;;;13.8;12.4;;;;;;;5.97;74.91406;944.699;;;;
2019/11/15 11:16:56;;;;;;;14.1;12.7;;;;;;;6.04;74.9375;944.8092;;;;
2019/11/15 11:19:22;;;;;;;14;12.6;;;;;;;6.05;75.03027;944.878;;;;
2019/11/15 11:21:47;;;;;;;14.6;13.1;;;;;;;5.9;75.4248;945.0132;;;;
2019/11/15 11:24:12;;;;;;;14;12.6;;;;;;;5.84;75.4043;945.0544;;;;
2019/11/15 11:26:37;;;;;;;15.5;13.3;;;;;;;5.87;75.77344;945.134;;;;
2019/11/15 11:29:02;;;;;;;14.1;12.6;;;;;;;5.81;75.6582;945.1421;;;;
2019/11/15 11:31:31;;;;;;;13.6;12.3;;;;;;;6.06;75.11035;945.1132;;;;
2019/11/15 11:38:43;;;;;;;14.5;13;;;;;;;6.1;75.97363;945.1867;;;;
2019/11/15 11:41:08;;;;;;;13.8;12.4;;;;;;;6.13;75.76172;945.2224;;;;
2019/11/15 11:43:33;;;;;;;13.8;12.2;;;;;;;6.04;75.63281;945.1884;;;;
2019/11/15 11:45:59;;;;;;;13.7;12.4;;;;;;;6.2;75.43262;945.1692;;;;
2019/11/15 11:48:24;;;;;;;13.9;12.5;;;;;;;6.07;76.24121;945.154;;;;
2019/11/15 11:50:49;;;;;;;14.7;13.2;;;;;;;6.18;75.72461;945.1349;;;;
2019/11/15 11:53:14;;;;;;;14.4;12.9;;;;;;;6.29;76.17676;945.0336;;;;
2019/11/15 11:55:40;;;;;;;13.9;12.6;;;;;;;6.31;75.05273;944.9778;;;;
2019/11/15 11:58:05;;;;;;;14.2;12.8;;;;;;;6.26;75.68164;945.0154;;;;
2019/11/15 12:00:31;;;;;;;14.6;12.2;;;;;;;6.42;75.02637;945.022;;;;
2019/11/15 12:02:55;;;;;;;13.9;12.4;;;;;;;6.3;75.35742;945.0804;;;;
2019/11/15 12:05:21;;;;;;;13.6;12.3;;;;;;;6.37;75.37012;945.0569;;;;
2019/11/15 12:07:46;;;;;;;13.6;12.2;;;;;;;6.46;75.81934;945.045;;;;
2019/11/15 12:10:12;;;;;;;13.4;12;;;;;;;6.6;75.21777;945.0433;;;;
2019/11/15 12:12:37;;;;;;;13.3;12;;;;;;;6.69;75.1416;945.079;;;;
2019/11/15 12:15:02;;;;;;;13.6;12.3;;;;;;;6.93;74.28125;944.9835;;;;
2019/11/15 12:17:27;;;;;;;13.3;12;;;;;;;6.98;73.9707;944.8803;;;;
2019/11/15 12:19:52;;;;;;;13.3;12;;;;;;;7.25;73.06934;944.7894;;;;
2019/11/15 12:22:17;;;;;;;12.6;11.3;;;;;;;7.39;73.19629;944.7985;;;;
2019/11/15 12:24:43;;;;;;;13;11.6;;;;;;;7.45;72.83008;944.7754;;;;
2019/11/15 12:27:08;;;;;;;13.6;11.2;;;;;;;7.37;72.00684;944.7805;;;;
2019/11/15 12:29:33;;;;;;;12.5;11.2;;;;;;;7.55;72.27734;944.6884;;;;
2019/11/15 12:31:59;;;;;;;13.7;12.1;;;;;;;7.56;71.56836;944.7492;;;;
2019/11/15 12:34:24;;;;;;;12.9;11.5;;;;;;;7.57;71.50098;944.7381;;;;
2019/11/15 12:36:49;;;;;;;13.4;11.1;;;;;;;7.37;72.23242;944.812;;;;
2019/11/15 12:39:14;;;;;;;11.6;10.5;;;;;;;7.42;71.49902;944.8943;;;;
2019/11/15 12:41:40;;;;;;;11.7;10.5;;;;;;;7.38;71.40137;944.8671;;;;
2019/11/15 12:44:05;;;;;;;11.4;10.2;;;;;;;7.66;71.41309;944.7954;;;;
2019/11/15 12:46:30;;;;;;;11.5;10.3;;;;;;;7.71;71.29688;944.7469;;;;
2019/11/15 12:48:55;;;;;;;11.5;10.3;;;;;;;7.75;70.66211;944.8422;;;;
2019/11/15 12:51:20;;;;;;;11.9;10.4;;;;;;;7.75;72.03418;944.9059;;;;
2019/11/15 12:53:46;;;;;;;11.1;10;;;;;;;7.72;71.6748;944.9125;;;;
2019/11/15 12:56:11;;;;;;;10.5;9.5;;;;;;;7.71;70.92871;944.9511;;;;
2019/11/15 12:58:36;;;;;;;10.8;9.7;;;;;;;7.69;71.49902;944.9244;;;;
2019/11/15 13:01:01;;;;;;;10.7;9.7;;;;;;;7.56;71.37402;944.8602;;;;
2019/11/15 13:03:26;;;;;;;10.6;9.5;;;;;;;7.66;71.03711;944.9178;;;;
2019/11/15 13:05:51;;;;;;;10.6;9.4;;;;;;;7.65;70.07422;944.8722;;;;
2019/11/15 13:08:16;;;;;;;11.2;9.7;;;;;;;7.59;71.31152;944.8287;;;;
2019/11/15 13:10:41;;;;;;;10.2;9.2;;;;;;;7.66;70.80762;944.7062;;;;
2019/11/15 13:13:07;;;;;;;10.7;9.5;;;;;;;7.73;70.86328;944.7989;;;;
2019/11/15 13:15:32;;;;;;;10.5;9.4;;;;;;;7.55;72.25293;944.7541;;;;
2019/11/15 13:17:57;;;;;;;10.9;9.8;;;;;;;7.46;72.1123;944.5995;;;;
2019/11/15 13:20:23;;;;;;;10.8;9.7;;;;;;;7.39;72.68262;944.6641;;;;
2019/11/15 13:22:48;;;;;;;11.2;9.8;;;;;;;7.6;72.29395;944.7939;;;;
2019/11/15 13:25:13;;;;;;;11.6;10.4;;;;;;;7.57;72.50684;944.8484;;;;
2019/11/15 13:27:38;;;;;;;11.9;10.7;;;;;;;7.51;72.58984;944.7758;;;;
2019/11/15 13:30:03;;;;;;;11.4;10.2;;;;;;;7.5;71.71973;944.632;;;;
2019/11/15 13:32:28;;;;;;;11.4;10.3;;;;;;;7.64;71.74219;944.5154;;;;
2019/11/15 13:34:54;;;;;;;11.9;10.6;;;;;;;7.65;71.7207;944.6127;;;;
2019/11/15 13:37:19;;;;;;;11.4;10.3;;;;;;;7.53;72.6377;944.741;;;;
2019/11/15 13:39:44;;;;;;;11.9;10.7;;;;;;;7.4;72.95996;944.7183;;;;
2019/11/15 13:42:09;;;;;;;26.5;22.4;;;;;;;7.39;73.7334;944.8488;;;;
2019/11/15 13:44:35;;;;;;;12.5;11.2;;;;;;;7.37;73.54883;945.0608;;;;
2019/11/15 13:47:08;;;;;;;12;10.8;;;;;;;7.27;73.73438;945.2559;;;;
2019/11/15 13:49:25;;;;;;;11.7;10.5;;;;;;;7.22;74.26367;945.3326;;;;
2019/11/15 13:54:15;;;;;;;11.5;10.2;;;;;;;7.2;74.61523;945.3713;;;;
2019/11/15 13:56:40;;;;;;;11.9;10.6;;;;;;;7.15;74.73145;945.3848;;;;
2019/11/15 13:59:05;;;;;;;10.7;9.6;;;;;;;7.25;74.97656;945.3013;;;;
2019/11/15 14:01:30;;;;;;;12;10.2;;;;;;;7.25;75.1377;945.1757;;;;
2019/11/15 14:03:55;;;;;;;11.1;10;;;;;;;7.22;76.42383;945.0977;;;;
2019/11/15 14:06:20;;;;;;;11.8;10.6;;;;;;;7.25;75.20703;944.9732;;;;
2019/11/15 14:08:45;;;;;;;10.7;9.6;;;;;;;7.3;75.48828;945.0742;;;;
2019/11/15 14:11:11;;;;;;;12.1;10.2;;;;;;;7.41;75.15332;945.125;;;;
2019/11/15 14:13:47;;;;;;;14.5;12.4;;;;;;;7.37;74.98535;945.1312;;;;
2019/11/15 14:16:06;;;;;;;11.7;10.5;;;;;;;7.27;73.79297;945.2838;;;;
2019/11/15 14:18:26;;;;;;;11.1;10;;;;;;;7.26;74.49805;945.5078;;;;
2019/11/15 14:20:51;;;;;;;11.1;9.9;;;;;;;7.31;75.19336;945.5156;;;;
2019/11/15 14:23:16;;;;;;;10.7;9.7;;;;;;;7.45;74.46387;945.5234;;;;
2019/11/15 14:25:41;;;;;;;10.7;9.6;;;;;;;7.25;73.63086;945.6205;;;;
2019/11/15 14:28:06;;;;;;;10.7;9.6;;;;;;;7.35;74.26465;945.6261;;;;
2019/11/15 14:30:31;;;;;;;11.4;9.7;;;;;;;7.38;75.70801;945.6741;;;;
2019/11/15 14:32:56;;;;;;;11;9.8;;;;;;;7.35;75.24707;945.7395;;;;
2019/11/15 14:35:21;;;;;;;10.4;9.4;;;;;;;7.3;76.07129;945.9966;;;;
2019/11/15 14:37:47;;;;;;;11;9.8;;;;;;;7.31;76.41504;946.2545;;;;
2019/11/15 14:40:12;;;;;;;11.5;10.2;;;;;;;7.26;75.82324;946.4266;;;;
2019/11/15 14:42:37;;;;;;;11.6;10.4;;;;;;;7.24;76.26563;946.551;;;;
2019/11/15 14:45:03;;;;;;;11.6;10.3;;;;;;;7.2;76.23633;946.5231;;;;
2019/11/15 14:47:28;;;;;;;11.5;10.2;;;;;;;7.17;77.63574;946.394;;;;
2019/11/15 14:49:53;;;;;;;11.8;10.6;;;;;;;7.22;77.40625;946.2294;;;;
2019/11/15 14:52:18;;;;;;;13.3;11.9;;;;;;;7.22;77.43848;946.1006;;;;
2019/11/15 14:54:43;;;;;;;13.1;11.7;;;;;;;7.09;78.64941;946.0645;;;;
2019/11/15 14:57:09;;;;;;;13.5;11.1;;;;;;;7.16;75.94434;946.1453;;;;
2019/11/15 14:59:34;;;;;;;13;11.1;;;;;;;7.23;75.33887;946.2034;;;;
2019/11/15 15:02:00;;;;;;;12.7;11.3;;;;;;;7.14;79.27344;946.12;;;;
2019/11/15 15:04:25;;;;;;;12.1;10.9;;;;;;;7.13;79.30664;946.0666;;;;
2019/11/15 15:06:50;;;;;;;12.7;11.4;;;;;;;7.1;79.59863;946.08;;;;
2019/11/15 15:09:15;;;;;;;12.2;10.9;;;;;;;7.11;79.21191;946.0905;;;;
2019/11/15 15:11:40;;;;;;;13.6;10.6;;;;;;;7.05;79.55371;946.0332;;;;
2019/11/15 15:14:05;;;;;;;12.2;10.1;;;;;;;7.01;78.91992;946.1211;;;;
2019/11/15 15:16:30;;;;;;;12.2;10.6;;;;;;;7.06;79.88867;946.2522;;;;
2019/11/15 15:18:55;;;;;;;11.3;10.1;;;;;;;7.05;80.62695;946.3069;;;;
2019/11/15 15:21:20;;;;;;;11;9.9;;;;;;;7.06;80.24023;946.3798;;;;
2019/11/15 15:23:46;;;;;;;10.9;9.8;;;;;;;7.02;79.59473;946.3455;;;;
2019/11/15 15:26:11;;;;;;;11;9.9;;;;;;;7.05;79.04004;946.3256;;;;
2019/11/15 15:28:36;;;;;;;10.5;9.5;;;;;;;7.05;80.25195;946.3677;;;;
2019/11/15 15:31:01;;;;;;;11.8;10.6;;;;;;;6.86;81.36719;946.3834;;;;
2019/11/15 15:33:26;;;;;;;11.7;10.5;;;;;;;6.93;79.09668;946.4958;;;;
2019/11/15 15:35:52;;;;;;;13.4;12.1;;;;;;;7.01;80.23047;946.5511;;;;